createdAt,value
2019-04-07T00:02:22.449Z,54.08
2019-04-07T00:04:52.271Z,53.83
2019-04-07T00:07:24.202Z,52.98
2019-04-07T00:09:54.145Z,53.50
2019-04-07T00:12:24.287Z,54.00
2019-04-07T00:14:54.043Z,52.93
2019-04-07T00:17:23.858Z,54.67
2019-04-07T00:19:53.963Z,52.98
2019-04-07T00:22:22.989Z,53.08
2019-04-07T00:24:51.983Z,54.63
2019-04-07T00:27:21.254Z,54.77
2019-04-07T00:29:51.116Z,52.83
2019-04-07T00:32:20.315Z,52.53
2019-04-07T00:34:49.506Z,53.40
2019-04-07T00:37:18.597Z,53.78
2019-04-07T00:39:47.942Z,53.70
2019-04-07T00:42:17.483Z,53.92
2019-04-07T00:44:46.634Z,56.68
2019-04-07T00:47:16.985Z,55.05
2019-04-07T00:49:46.582Z,53.38
2019-04-07T00:52:17.483Z,54.75
2019-04-07T00:54:46.981Z,53.42
2019-04-07T00:57:16.400Z,55.80
2019-04-07T00:59:45.462Z,56.05
2019-04-07T01:02:14.900Z,53.92
2019-04-07T01:04:44.633Z,54.20
2019-04-07T01:07:14.489Z,53.85
2019-04-07T01:09:45.615Z,52.80
2019-04-07T01:12:14.930Z,53.65
2019-04-07T01:14:44.459Z,54.40
2019-04-07T01:17:13.854Z,55.12
2019-04-07T01:19:44.214Z,53.75
2019-04-07T01:22:14.594Z,53.65
2019-04-07T01:24:44.058Z,55.05
2019-04-07T01:27:13.249Z,57.00
2019-04-07T01:29:42.359Z,55.70
2019-04-07T01:32:11.646Z,54.13
2019-04-07T01:34:40.675Z,54.18
2019-04-07T01:37:10.898Z,54.53
2019-04-07T01:39:59.463Z,54.55
2019-04-07T01:42:40.942Z,52.43
2019-04-07T01:45:32.554Z,51.90
2019-04-07T01:48:24.198Z,54.88
2019-04-07T01:51:21.997Z,54.48
2019-04-07T01:54:03.716Z,53.08
2019-04-07T01:56:51.547Z,53.63
2019-04-07T01:59:39.231Z,52.67
2019-04-07T02:02:20.159Z,54.67
2019-04-07T02:05:11.142Z,55.60
2019-04-07T02:08:02.511Z,54.65
2019-04-07T02:10:57.145Z,54.40
2019-04-07T02:13:48.552Z,53.70
2019-04-07T02:17:10.866Z,53.28
2019-04-07T02:20:08.531Z,54.33
2019-04-07T02:22:55.194Z,54.98
2019-04-07T02:25:37.768Z,55.00
2019-04-07T02:28:38.367Z,54.70
2019-04-07T02:31:31.921Z,54.18
2019-04-07T02:34:08.980Z,55.25
2019-04-07T02:37:00.285Z,56.85
2019-04-07T02:39:48.846Z,55.60
2019-04-07T02:42:36.532Z,56.55
2019-04-07T02:45:30.329Z,56.73
2019-04-07T02:48:18.675Z,57.90
2019-04-07T02:51:15.923Z,56.13
2019-04-07T02:54:10.499Z,59.13
2019-04-07T02:56:57.656Z,55.55
2019-04-07T02:59:43.035Z,56.50
2019-04-07T03:02:39.197Z,55.23
2019-04-07T03:05:28.289Z,56.10
2019-04-07T03:08:22.678Z,55.63
2019-04-07T03:11:10.078Z,57.78
2019-04-07T03:13:54.535Z,56.08
2019-04-07T03:16:29.480Z,56.50
2019-04-07T03:19:17.662Z,55.30
2019-04-07T03:22:06.472Z,55.78
2019-04-07T03:25:07.137Z,54.23
2019-04-07T03:27:45.186Z,54.30
2019-04-07T03:30:22.460Z,56.23
2019-04-07T03:33:14.909Z,55.95
2019-04-07T03:35:50.974Z,55.65
2019-04-07T03:38:31.494Z,56.95
2019-04-07T03:41:16.180Z,56.68
2019-04-07T03:43:51.073Z,58.05
2019-04-07T03:46:32.775Z,57.75
2019-04-07T03:49:13.537Z,55.92
2019-04-07T03:52:14.085Z,57.35
2019-04-07T03:55:05.185Z,57.33
2019-04-07T03:57:59.127Z,55.38
2019-04-07T04:01:18.006Z,58.95
2019-04-07T04:04:13.910Z,55.63
2019-04-07T04:07:30.900Z,58.20
2019-04-07T04:09:58.126Z,59.15
2019-04-07T04:12:41.760Z,59.33
2019-04-07T04:15:31.310Z,57.83
2019-04-07T04:18:01.175Z,57.13
2019-04-07T04:20:30.573Z,58.23
2019-04-07T04:22:59.850Z,57.05
2019-04-07T04:25:30.012Z,59.27
2019-04-07T04:27:59.559Z,58.65
2019-04-07T04:30:28.649Z,58.95
2019-04-07T04:32:57.805Z,59.50
2019-04-07T04:35:26.957Z,58.68
2019-04-07T04:37:56.589Z,59.23
2019-04-07T04:40:26.047Z,60.43
2019-04-07T04:42:55.095Z,57.38
2019-04-07T04:45:24.653Z,58.87
2019-04-07T04:47:53.853Z,59.20
2019-04-07T04:50:23.679Z,57.67
2019-04-07T04:52:52.899Z,58.08
2019-04-07T04:55:22.215Z,60.28
2019-04-07T04:57:51.747Z,59.30
2019-04-07T05:00:21.762Z,61.63
2019-04-07T05:02:52.466Z,59.50
2019-04-07T05:05:23.195Z,58.67
2019-04-07T05:07:59.121Z,58.60
2019-04-07T05:10:23.298Z,59.08
2019-04-07T05:13:04.954Z,59.25
2019-04-07T05:15:34.215Z,60.17
2019-04-07T05:18:04.213Z,57.62
2019-04-07T05:20:34.367Z,59.85
2019-04-07T05:23:05.185Z,58.60
2019-04-07T05:25:34.905Z,60.75
2019-04-07T05:28:04.632Z,58.87
2019-04-07T05:30:34.655Z,59.23
2019-04-07T05:33:04.598Z,58.50
2019-04-07T05:35:34.164Z,57.85
2019-04-07T05:38:05.776Z,57.35
2019-04-07T05:40:34.568Z,59.40
2019-04-07T05:43:04.754Z,56.33
2019-04-07T05:45:36.763Z,58.57
2019-04-07T05:48:05.433Z,58.10
2019-04-07T05:50:41.099Z,58.05
2019-04-07T05:53:13.596Z,58.50
2019-04-07T05:55:41.217Z,58.13
2019-04-07T05:58:10.668Z,56.30
2019-04-07T06:00:41.583Z,57.48
2019-04-07T06:03:11.281Z,54.50
2019-04-07T06:05:40.979Z,56.25
2019-04-07T06:08:23.689Z,55.70
2019-04-07T06:10:41.530Z,57.33
2019-04-07T06:13:13.183Z,54.25
2019-04-07T06:15:41.725Z,55.88
2019-04-07T06:18:11.714Z,53.75
2019-04-07T06:20:44.090Z,53.60
2019-04-07T06:23:12.902Z,55.15
2019-04-07T06:25:45.015Z,54.53
2019-04-07T06:28:18.779Z,54.45
2019-04-07T06:30:47.447Z,53.70
2019-04-07T06:33:17.409Z,54.65
2019-04-07T06:35:47.666Z,53.23
2019-04-07T06:38:17.674Z,52.50
2019-04-07T06:40:47.979Z,49.95
2019-04-07T06:43:17.238Z,52.17
2019-04-07T06:46:03.802Z,51.80
2019-04-07T06:48:33.775Z,52.65
2019-04-07T06:51:26.939Z,51.68
2019-04-07T06:54:22.161Z,53.30
2019-04-07T06:57:17.402Z,51.48
2019-04-07T07:00:01.063Z,52.73
2019-04-07T07:02:49.927Z,50.52
2019-04-07T07:05:50.452Z,51.30
2019-04-07T07:08:47.477Z,50.45
2019-04-07T07:11:30.068Z,50.28
2019-04-07T07:14:05.226Z,51.02
2019-04-07T07:16:56.548Z,51.83
2019-04-07T07:19:37.105Z,49.30
2019-04-07T07:22:15.248Z,48.40
2019-04-07T07:24:46.509Z,50.95
2019-04-07T07:27:14.253Z,50.12
2019-04-07T07:29:46.024Z,49.50
2019-04-07T07:32:14.818Z,49.18
2019-04-07T07:34:44.278Z,49.40
2019-04-07T07:37:13.490Z,48.08
2019-04-07T07:39:45.110Z,48.80
2019-04-07T07:42:15.442Z,46.95
2019-04-07T07:44:44.679Z,46.08
2019-04-07T07:47:14.569Z,47.62
2019-04-07T07:49:45.795Z,46.98
2019-04-07T07:52:18.577Z,46.28
2019-04-07T07:54:46.325Z,46.68
2019-04-07T07:57:16.074Z,47.38
2019-04-07T07:59:46.340Z,45.92
2019-04-07T08:02:23.740Z,46.48
2019-04-07T08:04:56.723Z,44.48
2019-04-07T08:07:24.713Z,43.83
2019-04-07T08:09:54.819Z,43.20
2019-04-07T08:12:28.142Z,45.83
2019-04-07T08:14:59.130Z,43.42
2019-04-07T08:17:31.605Z,44.40
2019-04-07T08:20:01.084Z,43.10
2019-04-07T08:22:36.552Z,44.05
2019-04-07T08:25:01.109Z,41.42
2019-04-07T08:27:32.859Z,43.40
2019-04-07T08:30:03.829Z,43.00
2019-04-07T08:32:33.382Z,41.48
2019-04-07T08:35:05.594Z,39.50
2019-04-07T08:37:36.476Z,40.80
2019-04-07T08:40:07.623Z,39.42
2019-04-07T08:42:38.023Z,38.60
2019-04-07T08:45:09.364Z,40.85
2019-04-07T08:47:39.118Z,38.98
2019-04-07T08:50:08.564Z,39.15
2019-04-07T08:52:56.920Z,40.40
2019-04-07T08:55:25.923Z,41.25
2019-04-07T08:57:55.090Z,39.30
2019-04-07T09:00:26.226Z,40.50
2019-04-07T09:03:03.868Z,39.83
2019-04-07T09:05:29.797Z,39.63
2019-04-07T09:07:57.357Z,39.70
2019-04-07T09:10:33.525Z,40.58
2019-04-07T09:13:04.781Z,40.52
2019-04-07T09:15:52.249Z,39.65
2019-04-07T09:18:27.296Z,38.20
2019-04-07T09:21:18.337Z,40.03
2019-04-07T09:24:05.027Z,38.98
2019-04-07T09:27:09.046Z,38.35
2019-04-07T09:29:51.252Z,37.30
2019-04-07T09:32:46.695Z,37.58
2019-04-07T09:35:34.563Z,37.17
2019-04-07T09:38:24.843Z,38.20
2019-04-07T09:41:08.490Z,37.45
2019-04-07T09:43:57.165Z,37.10
2019-04-07T09:46:48.401Z,37.40
2019-04-07T09:49:25.937Z,37.35
2019-04-07T09:52:17.861Z,37.30
2019-04-07T09:54:59.014Z,36.95
2019-04-07T09:57:41.897Z,36.38
2019-04-07T10:00:37.470Z,37.40
2019-04-07T10:03:16.999Z,36.58
2019-04-07T10:05:58.240Z,37.08
2019-04-07T10:08:53.237Z,36.98
2019-04-07T10:11:41.791Z,36.75
2019-04-07T10:14:28.307Z,36.38
2019-04-07T10:17:13.309Z,34.63
2019-04-07T10:19:59.910Z,33.50
2019-04-07T10:22:41.176Z,33.80
2019-04-07T10:25:21.100Z,34.27
2019-04-07T10:28:11.040Z,34.05
2019-04-07T10:31:10.300Z,32.33
2019-04-07T10:33:45.983Z,33.23
2019-04-07T10:36:33.593Z,32.53
2019-04-07T10:39:11.991Z,31.30
2019-04-07T10:42:00.301Z,32.33
2019-04-07T10:44:40.444Z,31.25
2019-04-07T10:50:22.192Z,31.37
2019-04-07T10:53:22.766Z,32.05
2019-04-07T10:56:07.277Z,31.20
2019-04-07T10:59:07.498Z,29.20
2019-04-07T11:01:46.136Z,29.60
2019-04-07T11:04:34.062Z,31.75
2019-04-07T11:07:22.542Z,30.43
2019-04-07T11:10:03.642Z,30.57
2019-04-07T11:12:51.344Z,30.00
2019-04-07T11:15:48.732Z,28.98
2019-04-07T11:18:36.407Z,28.00
2019-04-07T11:21:26.433Z,30.17
2019-04-07T11:24:13.461Z,28.27
2019-04-07T11:27:00.618Z,27.65
2019-04-07T11:29:38.557Z,25.57
2019-04-07T11:32:17.645Z,24.82
2019-04-07T11:34:59.965Z,25.05
2019-04-07T11:37:45.833Z,24.30
2019-04-07T11:40:52.191Z,23.40
2019-04-07T11:43:40.864Z,24.20
2019-04-07T11:46:24.400Z,23.65
2019-04-07T11:48:59.124Z,23.85
2019-04-07T11:51:42.459Z,22.60
2019-04-07T11:54:20.090Z,21.40
2019-04-07T11:57:20.453Z,21.97
2019-04-07T12:00:16.106Z,18.52
2019-04-07T12:03:10.608Z,17.87
2019-04-07T12:06:08.651Z,12.68
2019-04-07T12:08:54.600Z,12.20
2019-04-07T12:11:55.130Z,10.20
2019-04-07T12:14:45.473Z,11.03
2019-04-07T12:17:43.573Z,10.53
2019-04-07T12:20:33.691Z,11.00
2019-04-07T12:23:11.463Z,11.57
2019-04-07T12:26:27.822Z,11.78
2019-04-07T12:29:14.792Z,10.70
2019-04-07T12:32:09.659Z,10.23
2019-04-07T12:35:01.140Z,10.95
2019-04-07T12:37:42.407Z,11.30
2019-04-07T12:40:30.547Z,11.57
2019-04-07T12:43:13.187Z,11.75
2019-04-07T12:45:54.816Z,13.38
2019-04-07T12:48:36.599Z,12.63
2019-04-07T12:51:17.649Z,13.08
2019-04-07T12:54:16.798Z,12.82
2019-04-07T12:56:54.725Z,13.75
2019-04-07T12:59:33.739Z,13.83
2019-04-07T13:02:21.372Z,15.10
2019-04-07T13:05:02.626Z,15.68
2019-04-07T13:07:38.665Z,15.15
2019-04-07T13:10:23.704Z,14.33
2019-04-07T13:13:11.342Z,12.28
2019-04-07T13:16:03.246Z,10.78
2019-04-07T13:19:04.584Z,11.90
2019-04-07T13:21:46.817Z,10.65
2019-04-07T13:24:37.781Z,11.35
2019-04-07T13:27:22.164Z,11.50
2019-04-07T13:30:13.896Z,12.23
2019-04-07T13:32:58.138Z,12.93
2019-04-07T13:35:45.154Z,12.20
2019-04-07T13:38:39.112Z,12.15
2019-04-07T13:41:18.637Z,13.45
2019-04-07T13:44:07.602Z,14.38
2019-04-07T13:46:56.034Z,13.53
2019-04-07T13:49:51.406Z,13.32
2019-04-07T13:52:32.285Z,14.85
2019-04-07T13:55:24.111Z,13.83
2019-04-07T13:58:12.303Z,14.73
2019-04-07T14:01:03.477Z,14.53
2019-04-07T14:03:56.542Z,13.78
2019-04-07T14:06:36.188Z,13.95
2019-04-07T14:09:27.194Z,13.78
2019-04-07T14:12:12.813Z,13.90
2019-04-07T14:14:53.825Z,14.20
2019-04-07T14:17:35.099Z,17.80
2019-04-07T14:20:33.069Z,14.43
2019-04-07T14:23:09.702Z,14.30
2019-04-07T14:26:04.558Z,14.28
2019-04-07T14:28:40.208Z,14.45
2019-04-07T14:31:41.216Z,13.72
2019-04-07T14:34:37.239Z,14.58
2019-04-07T14:37:26.375Z,14.28
2019-04-07T14:40:15.142Z,13.48
2019-04-07T14:42:51.929Z,12.35
2019-04-07T14:45:41.710Z,11.63
2019-04-07T14:48:20.471Z,11.93
2019-04-07T14:51:10.093Z,10.70
2019-04-07T14:54:04.689Z,12.20
2019-04-07T14:56:58.762Z,11.48
2019-04-07T14:59:54.560Z,12.13
2019-04-07T15:02:23.679Z,11.75
2019-04-07T15:04:59.622Z,11.70
2019-04-07T15:07:47.028Z,11.65
2019-04-07T15:10:20.499Z,11.95
2019-04-07T15:12:56.830Z,11.78
2019-04-07T15:15:26.812Z,12.05
2019-04-07T15:17:55.951Z,12.35
2019-04-07T15:20:25.143Z,11.60
2019-04-07T15:22:54.384Z,12.23
2019-04-07T15:25:23.516Z,12.55
2019-04-07T15:27:55.672Z,12.58
2019-04-07T15:30:24.313Z,12.10
2019-04-07T15:32:57.788Z,12.43
2019-04-07T15:35:25.314Z,12.03
2019-04-07T15:37:54.979Z,13.38
2019-04-07T15:40:24.591Z,12.15
2019-04-07T15:42:53.913Z,12.30
2019-04-07T15:45:23.455Z,12.37
2019-04-07T15:47:53.977Z,11.68
2019-04-07T15:50:23.313Z,12.37
2019-04-07T15:52:52.308Z,13.38
2019-04-07T15:55:21.790Z,12.70
2019-04-07T15:57:54.893Z,12.37
2019-04-07T16:00:22.360Z,12.30
2019-04-07T16:02:52.634Z,12.40
2019-04-07T16:05:22.638Z,12.20
2019-04-07T16:07:54.308Z,12.53
2019-04-07T16:10:23.946Z,12.95
2019-04-07T16:12:54.351Z,12.80
2019-04-07T16:15:25.074Z,12.20
2019-04-07T16:17:54.163Z,13.65
2019-04-07T16:20:26.270Z,13.13
2019-04-07T16:22:54.254Z,12.58
2019-04-07T16:25:27.526Z,13.43
2019-04-07T16:27:54.606Z,12.37
2019-04-07T16:30:23.637Z,12.95
2019-04-07T16:32:53.599Z,13.60
2019-04-07T16:35:23.198Z,13.05
2019-04-07T16:37:53.127Z,13.48
2019-04-07T16:40:22.368Z,13.03
2019-04-07T16:43:05.506Z,13.30
2019-04-07T16:45:22.383Z,13.13
2019-04-07T16:47:51.597Z,12.85
2019-04-07T16:50:21.868Z,12.75
2019-04-07T16:52:51.041Z,14.03
2019-04-07T16:55:37.936Z,12.40
2019-04-07T16:58:09.623Z,13.20
2019-04-07T17:00:39.880Z,13.32
2019-04-07T17:03:10.617Z,13.08
2019-04-07T17:05:40.138Z,12.23
2019-04-07T17:08:10.074Z,13.38
2019-04-07T17:10:39.847Z,12.93
2019-04-07T17:13:17.867Z,12.33
2019-04-07T17:15:43.216Z,13.43
2019-04-07T17:18:36.651Z,12.43
2019-04-07T17:21:11.471Z,15.85
2019-04-07T17:23:40.860Z,14.38
2019-04-07T17:26:10.440Z,16.07
2019-04-07T17:28:44.516Z,19.05
2019-04-07T17:31:11.807Z,13.43
2019-04-07T17:33:41.576Z,12.90
2019-04-07T17:36:15.367Z,15.28
2019-04-07T17:39:09.842Z,13.05
2019-04-07T17:41:40.549Z,12.80
2019-04-07T17:44:24.584Z,13.88
2019-04-07T17:47:19.851Z,14.00
2019-04-07T17:50:23.612Z,16.55
2019-04-07T17:53:10.024Z,13.98
2019-04-07T17:55:52.862Z,14.18
2019-04-07T17:58:47.846Z,13.22
2019-04-07T18:01:36.210Z,14.05
2019-04-07T18:04:18.901Z,14.15
2019-04-07T18:07:19.047Z,15.00
2019-04-07T18:10:06.833Z,14.93
2019-04-07T18:13:07.594Z,14.98
2019-04-07T18:15:55.445Z,14.00
2019-04-07T18:18:43.213Z,13.50
2019-04-07T18:21:32.251Z,14.07
2019-04-07T18:24:35.524Z,14.13
2019-04-07T18:27:23.193Z,14.07
2019-04-07T18:30:01.145Z,14.40
2019-04-07T18:32:53.583Z,15.13
2019-04-07T18:35:37.979Z,14.73
2019-04-07T18:38:31.173Z,15.45
2019-04-07T18:41:14.642Z,14.70
2019-04-07T18:44:04.524Z,24.70
2019-04-07T18:46:51.545Z,50.00
2019-04-07T18:49:35.441Z,23.18
2019-04-07T18:52:27.719Z,17.32
2019-04-07T18:55:09.866Z,16.83
2019-04-07T18:58:03.068Z,15.55
2019-04-07T19:00:50.670Z,14.68
2019-04-07T19:03:38.547Z,15.35
2019-04-07T19:06:20.196Z,14.33
2019-04-07T19:09:14.796Z,14.50
2019-04-07T19:12:10.476Z,15.25
2019-04-07T19:15:03.100Z,13.85
2019-04-07T19:18:03.154Z,15.00
2019-04-07T19:20:51.467Z,14.15
2019-04-07T19:23:52.580Z,13.98
2019-04-07T19:26:44.447Z,15.28
2019-04-07T19:29:28.350Z,15.00
2019-04-07T19:32:17.987Z,14.63
2019-04-07T19:34:55.897Z,21.42
2019-04-07T19:37:48.210Z,16.05
2019-04-07T19:40:36.885Z,16.40
2019-04-07T19:43:22.063Z,14.33
2019-04-07T19:46:16.695Z,15.28
2019-04-07T19:49:05.529Z,13.85
2019-04-07T19:51:49.473Z,13.58
2019-04-07T19:54:49.384Z,12.60
2019-04-07T19:57:38.481Z,13.13
2019-04-07T20:00:33.666Z,12.15
2019-04-07T20:03:22.128Z,12.85
2019-04-07T20:06:10.614Z,12.55
2019-04-07T20:08:46.131Z,12.15
2019-04-07T20:11:40.279Z,12.63
2019-04-07T20:14:31.683Z,12.73
2019-04-07T20:17:21.556Z,12.33
2019-04-07T20:19:57.846Z,11.88
2019-04-07T20:22:49.427Z,11.80
2019-04-07T20:25:45.929Z,11.57
2019-04-07T20:28:19.562Z,12.43
2019-04-07T20:31:06.674Z,13.18
2019-04-07T20:33:54.986Z,12.30
2019-04-07T20:36:51.660Z,12.70
2019-04-07T20:39:35.781Z,12.20
2019-04-07T20:42:23.590Z,28.98
2019-04-07T20:45:10.539Z,20.05
2019-04-07T20:47:44.519Z,18.75
2019-04-07T20:50:35.558Z,16.55
2019-04-07T20:53:29.911Z,21.10
2019-04-07T20:56:11.606Z,14.87
2019-04-07T20:59:16.726Z,16.82
2019-04-07T21:02:14.378Z,15.83
2019-04-07T21:05:02.761Z,13.13
2019-04-07T21:07:49.164Z,16.02
2019-04-07T21:10:37.920Z,16.25
2019-04-07T21:13:32.263Z,17.32
2019-04-07T21:16:10.277Z,23.47
2019-04-07T21:18:56.382Z,32.60
2019-04-07T21:21:51.002Z,14.28
2019-04-07T21:24:34.055Z,29.55
2019-04-07T21:27:33.440Z,27.10
2019-04-07T21:30:24.894Z,30.43
2019-04-07T21:33:25.329Z,19.95
2019-04-07T21:36:06.433Z,42.27
2019-04-07T21:38:52.522Z,38.83
2019-04-07T21:41:45.180Z,59.83
2019-04-07T21:44:32.633Z,56.83
2019-04-07T21:47:25.509Z,27.42
2019-04-07T21:50:09.704Z,36.33
2019-04-07T21:52:57.000Z,25.60
2019-04-07T21:55:40.114Z,28.87
2019-04-07T21:58:26.272Z,15.25
2019-04-07T22:01:15.061Z,15.00
2019-04-07T22:04:09.327Z,13.88
2019-04-07T22:06:47.162Z,13.90
2019-04-07T22:09:38.614Z,13.95
2019-04-07T22:12:08.528Z,15.00
2019-04-07T22:14:42.999Z,14.53
2019-04-07T22:17:12.261Z,14.18
2019-04-07T22:19:45.422Z,14.50
2019-04-07T22:22:12.407Z,14.98
2019-04-07T22:24:42.230Z,14.83
2019-04-07T22:27:11.698Z,14.43
2019-04-07T22:29:41.611Z,14.28
2019-04-07T22:32:11.683Z,14.23
2019-04-07T22:34:41.865Z,13.95
2019-04-07T22:37:11.035Z,13.65
2019-04-07T22:39:40.259Z,13.53
2019-04-07T22:42:12.818Z,13.58
2019-04-07T22:44:40.465Z,14.03
2019-04-07T22:47:12.051Z,13.62
2019-04-07T22:49:41.509Z,13.53
2019-04-07T22:52:11.773Z,13.38
2019-04-07T22:54:41.002Z,13.25
2019-04-07T22:57:13.855Z,13.55
2019-04-07T22:59:41.794Z,13.20
2019-04-07T23:02:11.647Z,13.00
2019-04-07T23:04:40.998Z,14.10
2019-04-07T23:07:13.859Z,13.83
2019-04-07T23:09:42.957Z,12.93
2019-04-07T23:12:12.633Z,13.78
2019-04-07T23:14:42.170Z,13.32
2019-04-07T23:17:12.012Z,13.22
2019-04-07T23:19:41.939Z,13.62
2019-04-07T23:22:11.792Z,13.80
2019-04-07T23:24:41.164Z,13.58
2019-04-07T23:27:10.465Z,13.93
2019-04-07T23:29:40.282Z,13.65
2019-04-07T23:32:09.611Z,13.35
2019-04-07T23:34:39.422Z,13.72
2019-04-07T23:37:08.766Z,14.23
2019-04-07T23:39:37.744Z,14.33
2019-04-07T23:42:07.221Z,13.50
2019-04-07T23:44:37.334Z,13.75
2019-04-07T23:47:06.924Z,13.35
2019-04-07T23:49:36.315Z,13.98
2019-04-07T23:52:05.550Z,13.40
2019-04-07T23:54:35.238Z,14.53
2019-04-07T23:57:07.077Z,14.07
2019-04-07T23:59:36.400Z,14.10
